Impacts TAF Board
For situational awareness. Not to be used for flight planning purposes.
IDs:

KDEN - Denver Intl, CO, US

Issued at 1454 UTC 01 Mar 2021
Updated at 1700 UTC 01 Mar 2021
Potential Impact None Slight Moderate High
Time1653Z 01/17Z 01/18Z 01/19Z 01/20Z 01/21Z 01/22Z 01/23Z 02/00Z 02/01Z 02/02Z 02/03Z 02/04Z 02/05Z>>
Type OBS PRVL PRVL PRVL PRVL PRVL PRVL PRVL PRVL PRVL PRVL PRVL PRVL PRVL
VIS 10 >6 >6 >6 >6 >6 >6 >6 >6 >6 >6 >6 >6 >6
CIG -- -- -- -- -- -- -- -- -- -- -- -- -- --
Cover CLR SKC SKC SKC SKC SKC SKC SKC SKC SKC SKC SKC SKC SKC
FltCat VFR VFR VFR VFR VFR VFR VFR VFR VFR VFR VFR VFR VFR VFR
WX -- -- -- -- -- -- -- -- -- -- -- -- -- --
WDir 220 210 210 210 150 150 150 150 150 150 150 150 200 200
WSpd 4 10 10 10 8 8 8 8 8 8 8 8 10 10
WGst -- -- -- -- -- -- -- -- -- -- -- -- -- --
Raw TAF
KDEN 011454Z 0115/0218 21010KT P6SM SKC
  FM012000 15008KT P6SM SKC
  FM020400 20010KT P6SM SKC


Raw METAR
KDEN 011653Z 22004KT 10SM CLR 03/M12 A3031 RMK AO2 SLP282 T00281122
KDEN 011553Z 21007KT 10SM CLR 00/M14 A3030 RMK AO2 SLP285 T00001139
KDEN 011453Z 22008KT 10SM CLR M02/M16 A3029 RMK AO2 SLP282 T10221156 53014
KDEN 011353Z 22012KT 10SM CLR M04/M16 A3027 RMK AO2 SLP281 T10441161

METAR Board
Radar Display
Forecast Discussion
For situational awareness. Not to be used for flight planning purposes.